sensor_id;sensor_type;location;lat;lon;timestamp;P1;durP1;ratioP1;P2;durP2;ratioP2
42616;SDS011;28250;52.320;0.360;2023-04-16T00:02:20;14.73;;;11.00;;
42616;SDS011;28250;52.320;0.360;2023-04-16T00:04:46;17.88;;;12.02;;
42616;SDS011;28250;52.320;0.360;2023-04-16T00:07:12;16.70;;;11.30;;
42616;SDS011;28250;52.320;0.360;2023-04-16T00:09:38;16.15;;;11.02;;
42616;SDS011;28250;52.320;0.360;2023-04-16T00:12:04;18.63;;;11.18;;
42616;SDS011;28250;52.320;0.360;2023-04-16T00:14:31;14.95;;;10.95;;
42616;SDS011;28250;52.320;0.360;2023-04-16T00:16:57;16.70;;;11.93;;
42616;SDS011;28250;52.320;0.360;2023-04-16T00:19:23;16.65;;;10.80;;
42616;SDS011;28250;52.320;0.360;2023-04-16T00:21:49;16.70;;;11.68;;
42616;SDS011;28250;52.320;0.360;2023-04-16T00:24:15;18.27;;;11.00;;
42616;SDS011;28250;52.320;0.360;2023-04-16T00:26:41;14.57;;;10.73;;
42616;SDS011;28250;52.320;0.360;2023-04-16T00:29:09;15.32;;;10.60;;
42616;SDS011;28250;52.320;0.360;2023-04-16T00:31:35;13.35;;;10.30;;
42616;SDS011;28250;52.320;0.360;2023-04-16T00:34:02;14.83;;;11.00;;
42616;SDS011;28250;52.320;0.360;2023-04-16T00:36:28;16.92;;;10.95;;
42616;SDS011;28250;52.320;0.360;2023-04-16T00:38:55;14.82;;;11.05;;
42616;SDS011;28250;52.320;0.360;2023-04-16T00:41:21;17.42;;;11.55;;
42616;SDS011;28250;52.320;0.360;2023-04-16T00:43:48;14.73;;;10.13;;
42616;SDS011;28250;52.320;0.360;2023-04-16T00:46:15;16.60;;;11.82;;
42616;SDS011;28250;52.320;0.360;2023-04-16T00:48:43;14.98;;;10.88;;
42616;SDS011;28250;52.320;0.360;2023-04-16T00:51:10;16.90;;;11.35;;
42616;SDS011;28250;52.320;0.360;2023-04-16T00:53:36;18.05;;;12.05;;
42616;SDS011;28250;52.320;0.360;2023-04-16T00:56:03;18.60;;;12.57;;
42616;SDS011;28250;52.320;0.360;2023-04-16T00:58:32;18.08;;;12.02;;
42616;SDS011;28250;52.320;0.360;2023-04-16T01:00:59;16.75;;;11.52;;
42616;SDS011;28250;52.320;0.360;2023-04-16T01:03:30;17.45;;;11.90;;
42616;SDS011;28250;52.320;0.360;2023-04-16T01:08:30;16.15;;;10.38;;
42616;SDS011;28250;52.320;0.360;2023-04-16T01:10:56;16.50;;;11.38;;
42616;SDS011;28250;52.320;0.360;2023-04-16T01:13:22;16.30;;;10.77;;
42616;SDS011;28250;52.320;0.360;2023-04-16T01:15:49;15.68;;;11.05;;
42616;SDS011;28250;52.320;0.360;2023-04-16T01:18:19;20.95;;;11.18;;
42616;SDS011;28250;52.320;0.360;2023-04-16T01:20:47;18.90;;;11.63;;
42616;SDS011;28250;52.320;0.360;2023-04-16T01:23:17;15.27;;;10.52;;
42616;SDS011;28250;52.320;0.360;2023-04-16T01:25:46;20.13;;;12.82;;
42616;SDS011;28250;52.320;0.360;2023-04-16T01:28:12;18.23;;;11.52;;
42616;SDS011;28250;52.320;0.360;2023-04-16T01:30:39;19.52;;;11.25;;
42616;SDS011;28250;52.320;0.360;2023-04-16T01:33:20;16.40;;;11.23;;
42616;SDS011;28250;52.320;0.360;2023-04-16T01:35:46;19.88;;;13.00;;
42616;SDS011;28250;52.320;0.360;2023-04-16T01:38:14;17.63;;;11.65;;
42616;SDS011;28250;52.320;0.360;2023-04-16T01:40:40;16.13;;;10.18;;
42616;SDS011;28250;52.320;0.360;2023-04-16T01:43:06;17.88;;;11.50;;
42616;SDS011;28250;52.320;0.360;2023-04-16T01:45:33;15.93;;;10.10;;
42616;SDS011;28250;52.320;0.360;2023-04-16T01:47:59;15.98;;;10.65;;
42616;SDS011;28250;52.320;0.360;2023-04-16T01:50:26;14.20;;;10.17;;
42616;SDS011;28250;52.320;0.360;2023-04-16T01:52:52;17.83;;;10.85;;
42616;SDS011;28250;52.320;0.360;2023-04-16T01:55:19;17.17;;;10.82;;
42616;SDS011;28250;52.320;0.360;2023-04-16T01:57:45;17.13;;;11.40;;
42616;SDS011;28250;52.320;0.360;2023-04-16T02:00:12;15.35;;;10.02;;
42616;SDS011;28250;52.320;0.360;2023-04-16T02:02:45;15.88;;;10.63;;
42616;SDS011;28250;52.320;0.360;2023-04-16T02:05:16;17.65;;;11.40;;
42616;SDS011;28250;52.320;0.360;2023-04-16T02:07:42;16.17;;;10.45;;
42616;SDS011;28250;52.320;0.360;2023-04-16T02:10:08;17.95;;;11.63;;
42616;SDS011;28250;52.320;0.360;2023-04-16T02:12:37;19.08;;;11.82;;
42616;SDS011;28250;52.320;0.360;2023-04-16T02:15:03;15.80;;;10.13;;
42616;SDS011;28250;52.320;0.360;2023-04-16T02:17:30;15.88;;;10.35;;
42616;SDS011;28250;52.320;0.360;2023-04-16T02:20:05;18.50;;;10.45;;
42616;SDS011;28250;52.320;0.360;2023-04-16T02:22:37;19.52;;;11.45;;
42616;SDS011;28250;52.320;0.360;2023-04-16T02:25:04;15.67;;;10.37;;
42616;SDS011;28250;52.320;0.360;2023-04-16T02:27:30;17.15;;;11.15;;
42616;SDS011;28250;52.320;0.360;2023-04-16T02:30:08;17.52;;;10.35;;
42616;SDS011;28250;52.320;0.360;2023-04-16T02:35:02;15.95;;;10.48;;
42616;SDS011;28250;52.320;0.360;2023-04-16T02:37:28;16.42;;;10.43;;
42616;SDS011;28250;52.320;0.360;2023-04-16T02:39:54;15.60;;;10.50;;
42616;SDS011;28250;52.320;0.360;2023-04-16T02:42:22;20.33;;;11.35;;
42616;SDS011;28250;52.320;0.360;2023-04-16T02:44:47;21.08;;;11.13;;
42616;SDS011;28250;52.320;0.360;2023-04-16T02:47:13;17.63;;;10.43;;
42616;SDS011;28250;52.320;0.360;2023-04-16T02:49:40;15.55;;;9.73;;
42616;SDS011;28250;52.320;0.360;2023-04-16T02:52:06;15.25;;;9.35;;
42616;SDS011;28250;52.320;0.360;2023-04-16T02:54:32;15.65;;;10.35;;
42616;SDS011;28250;52.320;0.360;2023-04-16T02:56:58;17.38;;;9.75;;
42616;SDS011;28250;52.320;0.360;2023-04-16T02:59:24;15.55;;;9.98;;
42616;SDS011;28250;52.320;0.360;2023-04-16T03:01:50;14.73;;;9.73;;
42616;SDS011;28250;52.320;0.360;2023-04-16T03:04:16;18.15;;;10.73;;
42616;SDS011;28250;52.320;0.360;2023-04-16T03:06:42;15.75;;;9.57;;
42616;SDS011;28250;52.320;0.360;2023-04-16T03:09:08;17.38;;;9.82;;
42616;SDS011;28250;52.320;0.360;2023-04-16T03:11:34;15.27;;;10.02;;
42616;SDS011;28250;52.320;0.360;2023-04-16T03:14:00;16.92;;;9.73;;
42616;SDS011;28250;52.320;0.360;2023-04-16T03:16:26;15.23;;;10.18;;
42616;SDS011;28250;52.320;0.360;2023-04-16T03:18:52;17.08;;;9.75;;
42616;SDS011;28250;52.320;0.360;2023-04-16T03:21:18;14.82;;;9.25;;
42616;SDS011;28250;52.320;0.360;2023-04-16T03:23:44;16.80;;;10.35;;
42616;SDS011;28250;52.320;0.360;2023-04-16T03:26:10;14.95;;;9.65;;
42616;SDS011;28250;52.320;0.360;2023-04-16T03:28:36;15.95;;;10.00;;
42616;SDS011;28250;52.320;0.360;2023-04-16T03:31:02;15.73;;;9.82;;
42616;SDS011;28250;52.320;0.360;2023-04-16T03:33:28;15.07;;;9.52;;
42616;SDS011;28250;52.320;0.360;2023-04-16T03:35:55;15.52;;;9.75;;
42616;SDS011;28250;52.320;0.360;2023-04-16T03:38:24;15.63;;;9.70;;
42616;SDS011;28250;52.320;0.360;2023-04-16T03:40:51;16.00;;;9.85;;
42616;SDS011;28250;52.320;0.360;2023-04-16T03:43:18;16.17;;;9.20;;
42616;SDS011;28250;52.320;0.360;2023-04-16T03:45:44;18.02;;;9.27;;
42616;SDS011;28250;52.320;0.360;2023-04-16T03:48:11;14.40;;;9.68;;
42616;SDS011;28250;52.320;0.360;2023-04-16T03:50:37;15.27;;;9.88;;
42616;SDS011;28250;52.320;0.360;2023-04-16T03:53:07;14.30;;;9.38;;
42616;SDS011;28250;52.320;0.360;2023-04-16T03:55:39;15.27;;;9.20;;
42616;SDS011;28250;52.320;0.360;2023-04-16T03:58:07;17.38;;;9.30;;
42616;SDS011;28250;52.320;0.360;2023-04-16T04:00:33;14.17;;;7.90;;
42616;SDS011;28250;52.320;0.360;2023-04-16T04:03:07;17.05;;;10.20;;
42616;SDS011;28250;52.320;0.360;2023-04-16T04:05:35;13.02;;;8.43;;
42616;SDS011;28250;52.320;0.360;2023-04-16T04:08:07;14.07;;;8.73;;
42616;SDS011;28250;52.320;0.360;2023-04-16T04:10:34;16.10;;;9.35;;
42616;SDS011;28250;52.320;0.360;2023-04-16T04:15:28;16.17;;;9.27;;
42616;SDS011;28250;52.320;0.360;2023-04-16T04:17:55;19.45;;;8.95;;
42616;SDS011;28250;52.320;0.360;2023-04-16T04:20:22;16.63;;;9.15;;
42616;SDS011;28250;52.320;0.360;2023-04-16T04:22:50;15.68;;;9.90;;
42616;SDS011;28250;52.320;0.360;2023-04-16T04:25:18;17.10;;;10.07;;
42616;SDS011;28250;52.320;0.360;2023-04-16T04:27:44;18.50;;;10.70;;
42616;SDS011;28250;52.320;0.360;2023-04-16T04:30:10;17.85;;;9.77;;
42616;SDS011;28250;52.320;0.360;2023-04-16T04:32:39;14.93;;;9.68;;
42616;SDS011;28250;52.320;0.360;2023-04-16T04:35:06;18.10;;;11.52;;
42616;SDS011;28250;52.320;0.360;2023-04-16T04:37:32;19.27;;;11.07;;
42616;SDS011;28250;52.320;0.360;2023-04-16T04:40:02;21.98;;;10.65;;
42616;SDS011;28250;52.320;0.360;2023-04-16T04:42:28;18.27;;;11.13;;
42616;SDS011;28250;52.320;0.360;2023-04-16T04:44:55;18.60;;;10.13;;
42616;SDS011;28250;52.320;0.360;2023-04-16T04:47:21;18.50;;;10.35;;
42616;SDS011;28250;52.320;0.360;2023-04-16T04:49:47;15.30;;;9.52;;
42616;SDS011;28250;52.320;0.360;2023-04-16T04:52:14;18.83;;;11.13;;
42616;SDS011;28250;52.320;0.360;2023-04-16T04:54:40;18.67;;;11.38;;
42616;SDS011;28250;52.320;0.360;2023-04-16T04:57:06;18.40;;;10.38;;
42616;SDS011;28250;52.320;0.360;2023-04-16T04:59:32;15.55;;;9.38;;
42616;SDS011;28250;52.320;0.360;2023-04-16T05:01:59;18.05;;;9.98;;
42616;SDS011;28250;52.320;0.360;2023-04-16T05:04:27;16.67;;;9.38;;
42616;SDS011;28250;52.320;0.360;2023-04-16T05:09:20;17.30;;;10.63;;
42616;SDS011;28250;52.320;0.360;2023-04-16T05:11:46;15.10;;;9.73;;
42616;SDS011;28250;52.320;0.360;2023-04-16T05:14:12;17.80;;;10.90;;
42616;SDS011;28250;52.320;0.360;2023-04-16T05:16:38;18.58;;;11.07;;
42616;SDS011;28250;52.320;0.360;2023-04-16T05:19:04;17.80;;;11.05;;
42616;SDS011;28250;52.320;0.360;2023-04-16T05:21:30;13.38;;;9.20;;
42616;SDS011;28250;52.320;0.360;2023-04-16T05:23:57;16.08;;;9.35;;
42616;SDS011;28250;52.320;0.360;2023-04-16T05:26:23;15.35;;;10.15;;
42616;SDS011;28250;52.320;0.360;2023-04-16T05:28:49;17.60;;;9.60;;
42616;SDS011;28250;52.320;0.360;2023-04-16T05:31:15;13.85;;;9.45;;
42616;SDS011;28250;52.320;0.360;2023-04-16T05:33:41;14.75;;;9.85;;
42616;SDS011;28250;52.320;0.360;2023-04-16T05:36:07;17.63;;;9.25;;
42616;SDS011;28250;52.320;0.360;2023-04-16T05:38:33;20.65;;;9.95;;
42616;SDS011;28250;52.320;0.360;2023-04-16T05:40:59;15.40;;;10.15;;
42616;SDS011;28250;52.320;0.360;2023-04-16T05:43:25;17.73;;;10.13;;
42616;SDS011;28250;52.320;0.360;2023-04-16T05:45:51;20.80;;;10.60;;
42616;SDS011;28250;52.320;0.360;2023-04-16T05:48:17;15.82;;;9.70;;
42616;SDS011;28250;52.320;0.360;2023-04-16T05:50:44;19.42;;;10.93;;
42616;SDS011;28250;52.320;0.360;2023-04-16T05:53:10;19.77;;;9.43;;
42616;SDS011;28250;52.320;0.360;2023-04-16T05:55:38;14.77;;;9.05;;
42616;SDS011;28250;52.320;0.360;2023-04-16T05:58:04;17.15;;;9.40;;
42616;SDS011;28250;52.320;0.360;2023-04-16T06:00:31;17.27;;;10.15;;
42616;SDS011;28250;52.320;0.360;2023-04-16T06:02:57;16.65;;;9.77;;
42616;SDS011;28250;52.320;0.360;2023-04-16T06:05:26;15.98;;;8.70;;
42616;SDS011;28250;52.320;0.360;2023-04-16T06:07:53;15.13;;;9.27;;
42616;SDS011;28250;52.320;0.360;2023-04-16T06:10:20;16.67;;;9.65;;
42616;SDS011;28250;52.320;0.360;2023-04-16T06:12:46;16.92;;;10.00;;
42616;SDS011;28250;52.320;0.360;2023-04-16T06:15:12;18.27;;;9.07;;
42616;SDS011;28250;52.320;0.360;2023-04-16T06:17:38;20.27;;;10.13;;
42616;SDS011;28250;52.320;0.360;2023-04-16T06:20:04;15.73;;;10.00;;
42616;SDS011;28250;52.320;0.360;2023-04-16T06:22:31;16.55;;;9.60;;
42616;SDS011;28250;52.320;0.360;2023-04-16T06:24:57;16.80;;;9.13;;
42616;SDS011;28250;52.320;0.360;2023-04-16T06:27:23;18.75;;;9.82;;
42616;SDS011;28250;52.320;0.360;2023-04-16T06:29:50;18.75;;;9.50;;
42616;SDS011;28250;52.320;0.360;2023-04-16T06:32:16;18.25;;;9.63;;
42616;SDS011;28250;52.320;0.360;2023-04-16T06:34:42;18.25;;;10.68;;
42616;SDS011;28250;52.320;0.360;2023-04-16T06:37:08;18.30;;;11.15;;
42616;SDS011;28250;52.320;0.360;2023-04-16T06:39:34;16.05;;;9.52;;
42616;SDS011;28250;52.320;0.360;2023-04-16T06:42:00;16.15;;;9.50;;
42616;SDS011;28250;52.320;0.360;2023-04-16T06:44:26;18.55;;;10.82;;
42616;SDS011;28250;52.320;0.360;2023-04-16T06:46:52;16.90;;;9.98;;
42616;SDS011;28250;52.320;0.360;2023-04-16T06:49:18;17.23;;;11.15;;
42616;SDS011;28250;52.320;0.360;2023-04-16T06:51:45;23.17;;;12.18;;
42616;SDS011;28250;52.320;0.360;2023-04-16T06:54:12;26.48;;;12.05;;
42616;SDS011;28250;52.320;0.360;2023-04-16T06:56:38;18.83;;;10.65;;
42616;SDS011;28250;52.320;0.360;2023-04-16T06:59:04;18.45;;;9.98;;
42616;SDS011;28250;52.320;0.360;2023-04-16T07:01:30;21.05;;;10.70;;
42616;SDS011;28250;52.320;0.360;2023-04-16T07:03:56;20.65;;;10.88;;
42616;SDS011;28250;52.320;0.360;2023-04-16T07:06:22;20.40;;;11.75;;
42616;SDS011;28250;52.320;0.360;2023-04-16T07:08:48;16.10;;;10.43;;
42616;SDS011;28250;52.320;0.360;2023-04-16T07:11:15;19.30;;;11.50;;
42616;SDS011;28250;52.320;0.360;2023-04-16T07:13:43;22.52;;;11.90;;
42616;SDS011;28250;52.320;0.360;2023-04-16T07:16:09;20.83;;;11.27;;
42616;SDS011;28250;52.320;0.360;2023-04-16T07:18:35;19.02;;;11.73;;
42616;SDS011;28250;52.320;0.360;2023-04-16T07:21:01;16.85;;;10.93;;
42616;SDS011;28250;52.320;0.360;2023-04-16T07:23:28;15.73;;;9.88;;
42616;SDS011;28250;52.320;0.360;2023-04-16T07:25:55;16.80;;;9.50;;
42616;SDS011;28250;52.320;0.360;2023-04-16T07:28:21;17.42;;;9.63;;
42616;SDS011;28250;52.320;0.360;2023-04-16T07:30:48;21.27;;;10.40;;
42616;SDS011;28250;52.320;0.360;2023-04-16T07:33:14;17.85;;;9.80;;
42616;SDS011;28250;52.320;0.360;2023-04-16T07:35:40;22.80;;;11.45;;
42616;SDS011;28250;52.320;0.360;2023-04-16T07:38:06;18.65;;;11.85;;
42616;SDS011;28250;52.320;0.360;2023-04-16T07:40:32;21.48;;;11.38;;
42616;SDS011;28250;52.320;0.360;2023-04-16T07:42:59;19.40;;;10.98;;
42616;SDS011;28250;52.320;0.360;2023-04-16T07:45:25;16.95;;;10.32;;
42616;SDS011;28250;52.320;0.360;2023-04-16T07:47:52;20.85;;;10.52;;
42616;SDS011;28250;52.320;0.360;2023-04-16T07:50:18;19.95;;;11.75;;
42616;SDS011;28250;52.320;0.360;2023-04-16T07:52:44;21.20;;;11.85;;
42616;SDS011;28250;52.320;0.360;2023-04-16T07:55:11;22.40;;;11.98;;
42616;SDS011;28250;52.320;0.360;2023-04-16T07:57:37;22.10;;;11.70;;
42616;SDS011;28250;52.320;0.360;2023-04-16T08:00:05;25.30;;;12.32;;
42616;SDS011;28250;52.320;0.360;2023-04-16T08:02:39;22.75;;;12.38;;
42616;SDS011;28250;52.320;0.360;2023-04-16T08:05:06;21.65;;;11.70;;
42616;SDS011;28250;52.320;0.360;2023-04-16T08:07:32;22.27;;;12.88;;
42616;SDS011;28250;52.320;0.360;2023-04-16T08:09:58;25.58;;;14.63;;
42616;SDS011;28250;52.320;0.360;2023-04-16T08:12:24;28.38;;;14.45;;
42616;SDS011;28250;52.320;0.360;2023-04-16T08:14:50;24.48;;;14.50;;
42616;SDS011;28250;52.320;0.360;2023-04-16T08:17:16;28.67;;;13.60;;
42616;SDS011;28250;52.320;0.360;2023-04-16T08:19:42;25.95;;;15.43;;
42616;SDS011;28250;52.320;0.360;2023-04-16T08:22:10;23.30;;;13.30;;
42616;SDS011;28250;52.320;0.360;2023-04-16T08:24:37;24.85;;;13.93;;
42616;SDS011;28250;52.320;0.360;2023-04-16T08:27:04;28.35;;;16.42;;
42616;SDS011;28250;52.320;0.360;2023-04-16T08:29:30;26.75;;;15.27;;
42616;SDS011;28250;52.320;0.360;2023-04-16T08:31:57;26.05;;;14.80;;
42616;SDS011;28250;52.320;0.360;2023-04-16T08:34:24;24.60;;;15.02;;
42616;SDS011;28250;52.320;0.360;2023-04-16T08:36:50;28.50;;;16.25;;
42616;SDS011;28250;52.320;0.360;2023-04-16T08:39:16;25.95;;;14.45;;
42616;SDS011;28250;52.320;0.360;2023-04-16T08:41:42;26.40;;;16.45;;
42616;SDS011;28250;52.320;0.360;2023-04-16T08:44:27;25.35;;;14.77;;
42616;SDS011;28250;52.320;0.360;2023-04-16T08:46:57;25.58;;;15.35;;
42616;SDS011;28250;52.320;0.360;2023-04-16T08:49:26;26.67;;;16.15;;
42616;SDS011;28250;52.320;0.360;2023-04-16T08:51:53;26.73;;;15.57;;
42616;SDS011;28250;52.320;0.360;2023-04-16T08:57:11;23.05;;;14.88;;
42616;SDS011;28250;52.320;0.360;2023-04-16T08:59:40;24.95;;;16.08;;
42616;SDS011;28250;52.320;0.360;2023-04-16T09:02:13;27.85;;;15.18;;
42616;SDS011;28250;52.320;0.360;2023-04-16T09:04:40;26.05;;;15.80;;
42616;SDS011;28250;52.320;0.360;2023-04-16T09:07:07;24.83;;;17.13;;
42616;SDS011;28250;52.320;0.360;2023-04-16T09:09:33;25.33;;;16.37;;
42616;SDS011;28250;52.320;0.360;2023-04-16T09:12:00;22.35;;;14.85;;
42616;SDS011;28250;52.320;0.360;2023-04-16T09:14:26;26.30;;;15.15;;
42616;SDS011;28250;52.320;0.360;2023-04-16T09:16:53;23.60;;;15.73;;
42616;SDS011;28250;52.320;0.360;2023-04-16T09:19:19;23.98;;;15.02;;
42616;SDS011;28250;52.320;0.360;2023-04-16T09:21:46;27.13;;;16.15;;
42616;SDS011;28250;52.320;0.360;2023-04-16T09:24:12;26.00;;;15.57;;
42616;SDS011;28250;52.320;0.360;2023-04-16T09:26:40;22.58;;;15.02;;
42616;SDS011;28250;52.320;0.360;2023-04-16T09:29:09;21.95;;;15.20;;
42616;SDS011;28250;52.320;0.360;2023-04-16T09:31:35;23.90;;;14.82;;
42616;SDS011;28250;52.320;0.360;2023-04-16T09:34:08;26.58;;;15.00;;
42616;SDS011;28250;52.320;0.360;2023-04-16T09:36:34;22.77;;;14.75;;
42616;SDS011;28250;52.320;0.360;2023-04-16T09:39:01;21.15;;;14.38;;
42616;SDS011;28250;52.320;0.360;2023-04-16T09:41:28;25.33;;;14.35;;
42616;SDS011;28250;52.320;0.360;2023-04-16T09:43:57;21.65;;;15.18;;
42616;SDS011;28250;52.320;0.360;2023-04-16T09:47:02;22.92;;;13.20;;
42616;SDS011;28250;52.320;0.360;2023-04-16T09:49:32;18.80;;;13.60;;
42616;SDS011;28250;52.320;0.360;2023-04-16T09:52:08;22.83;;;13.38;;
42616;SDS011;28250;52.320;0.360;2023-04-16T09:54:46;20.23;;;12.65;;
42616;SDS011;28250;52.320;0.360;2023-04-16T09:57:14;19.95;;;13.68;;
42616;SDS011;28250;52.320;0.360;2023-04-16T09:59:45;15.38;;;11.20;;
42616;SDS011;28250;52.320;0.360;2023-04-16T10:02:12;14.45;;;10.27;;
42616;SDS011;28250;52.320;0.360;2023-04-16T10:04:50;19.05;;;11.50;;
42616;SDS011;28250;52.320;0.360;2023-04-16T10:07:19;20.17;;;12.95;;
42616;SDS011;28250;52.320;0.360;2023-04-16T10:09:46;14.75;;;10.90;;
42616;SDS011;28250;52.320;0.360;2023-04-16T10:12:13;17.67;;;10.57;;
42616;SDS011;28250;52.320;0.360;2023-04-16T10:14:40;17.70;;;11.57;;
42616;SDS011;28250;52.320;0.360;2023-04-16T10:17:07;16.00;;;11.27;;
42616;SDS011;28250;52.320;0.360;2023-04-16T10:19:34;16.55;;;10.95;;
42616;SDS011;28250;52.320;0.360;2023-04-16T10:22:00;18.27;;;11.32;;
42616;SDS011;28250;52.320;0.360;2023-04-16T10:24:28;17.05;;;12.00;;
42616;SDS011;28250;52.320;0.360;2023-04-16T10:26:55;16.08;;;10.98;;
42616;SDS011;28250;52.320;0.360;2023-04-16T10:29:22;16.67;;;10.38;;
42616;SDS011;28250;52.320;0.360;2023-04-16T10:31:50;16.55;;;9.60;;
42616;SDS011;28250;52.320;0.360;2023-04-16T10:34:17;12.90;;;10.00;;
42616;SDS011;28250;52.320;0.360;2023-04-16T10:36:49;13.10;;;10.35;;
42616;SDS011;28250;52.320;0.360;2023-04-16T10:39:20;12.15;;;9.10;;
42616;SDS011;28250;52.320;0.360;2023-04-16T10:41:48;10.70;;;8.75;;
42616;SDS011;28250;52.320;0.360;2023-04-16T10:44:15;11.77;;;8.20;;
42616;SDS011;28250;52.320;0.360;2023-04-16T10:46:45;11.00;;;7.30;;
42616;SDS011;28250;52.320;0.360;2023-04-16T10:49:16;9.15;;;6.93;;
42616;SDS011;28250;52.320;0.360;2023-04-16T10:51:58;10.50;;;7.57;;
42616;SDS011;28250;52.320;0.360;2023-04-16T10:54:28;10.77;;;7.25;;
42616;SDS011;28250;52.320;0.360;2023-04-16T10:56:56;8.80;;;6.53;;
42616;SDS011;28250;52.320;0.360;2023-04-16T10:59:26;11.05;;;7.88;;
42616;SDS011;28250;52.320;0.360;2023-04-16T11:01:58;12.48;;;8.27;;
42616;SDS011;28250;52.320;0.360;2023-04-16T11:04:27;12.40;;;7.05;;
42616;SDS011;28250;52.320;0.360;2023-04-16T11:15:13;8.60;;;5.63;;
42616;SDS011;28250;52.320;0.360;2023-04-16T11:17:49;8.07;;;5.55;;
42616;SDS011;28250;52.320;0.360;2023-04-16T11:20:17;7.07;;;5.82;;
42616;SDS011;28250;52.320;0.360;2023-04-16T11:22:49;7.13;;;5.15;;
42616;SDS011;28250;52.320;0.360;2023-04-16T11:27:50;6.45;;;4.43;;
42616;SDS011;28250;52.320;0.360;2023-04-16T11:30:17;4.30;;;3.00;;
42616;SDS011;28250;52.320;0.360;2023-04-16T11:32:55;7.85;;;3.80;;
42616;SDS011;28250;52.320;0.360;2023-04-16T11:35:21;3.55;;;3.20;;
42616;SDS011;28250;52.320;0.360;2023-04-16T11:37:47;6.55;;;3.50;;
42616;SDS011;28250;52.320;0.360;2023-04-16T11:40:13;7.47;;;3.78;;
42616;SDS011;28250;52.320;0.360;2023-04-16T11:42:40;4.33;;;3.20;;
42616;SDS011;28250;52.320;0.360;2023-04-16T11:45:07;4.25;;;3.70;;
42616;SDS011;28250;52.320;0.360;2023-04-16T11:47:48;5.50;;;3.85;;
42616;SDS011;28250;52.320;0.360;2023-04-16T11:50:24;5.18;;;3.88;;
42616;SDS011;28250;52.320;0.360;2023-04-16T11:52:53;5.45;;;4.50;;
42616;SDS011;28250;52.320;0.360;2023-04-16T11:55:21;6.82;;;4.38;;
42616;SDS011;28250;52.320;0.360;2023-04-16T11:57:48;6.47;;;4.57;;
42616;SDS011;28250;52.320;0.360;2023-04-16T12:00:15;6.82;;;4.50;;
42616;SDS011;28250;52.320;0.360;2023-04-16T12:02:42;8.48;;;4.80;;
42616;SDS011;28250;52.320;0.360;2023-04-16T12:05:26;8.63;;;5.05;;
42616;SDS011;28250;52.320;0.360;2023-04-16T12:08:00;6.18;;;4.00;;
42616;SDS011;28250;52.320;0.360;2023-04-16T12:10:29;6.82;;;3.97;;
42616;SDS011;28250;52.320;0.360;2023-04-16T12:13:15;6.93;;;4.55;;
42616;SDS011;28250;52.320;0.360;2023-04-16T12:18:15;8.23;;;6.38;;
42616;SDS011;28250;52.320;0.360;2023-04-16T12:20:43;10.45;;;6.75;;
42616;SDS011;28250;52.320;0.360;2023-04-16T12:25:58;12.13;;;8.40;;
42616;SDS011;28250;52.320;0.360;2023-04-16T12:28:35;13.53;;;8.90;;
42616;SDS011;28250;52.320;0.360;2023-04-16T12:31:03;12.50;;;8.40;;
42616;SDS011;28250;52.320;0.360;2023-04-16T12:35:56;12.75;;;8.43;;
42616;SDS011;28250;52.320;0.360;2023-04-16T12:38:22;10.52;;;7.13;;
42616;SDS011;28250;52.320;0.360;2023-04-16T12:40:49;9.60;;;7.45;;
42616;SDS011;28250;52.320;0.360;2023-04-16T12:43:16;10.98;;;6.80;;
42616;SDS011;28250;52.320;0.360;2023-04-16T12:45:42;8.77;;;6.72;;
42616;SDS011;28250;52.320;0.360;2023-04-16T12:48:08;8.80;;;6.00;;
42616;SDS011;28250;52.320;0.360;2023-04-16T12:50:34;9.18;;;6.57;;
42616;SDS011;28250;52.320;0.360;2023-04-16T12:53:00;8.73;;;6.10;;
42616;SDS011;28250;52.320;0.360;2023-04-16T12:55:26;8.57;;;5.70;;
42616;SDS011;28250;52.320;0.360;2023-04-16T12:57:53;7.15;;;5.43;;
42616;SDS011;28250;52.320;0.360;2023-04-16T13:00:19;8.90;;;5.72;;
42616;SDS011;28250;52.320;0.360;2023-04-16T13:02:46;7.35;;;5.60;;
42616;SDS011;28250;52.320;0.360;2023-04-16T13:05:12;9.23;;;5.55;;
42616;SDS011;28250;52.320;0.360;2023-04-16T13:07:40;6.75;;;4.68;;
42616;SDS011;28250;52.320;0.360;2023-04-16T13:10:07;6.47;;;5.15;;
42616;SDS011;28250;52.320;0.360;2023-04-16T13:12:34;7.38;;;4.25;;
42616;SDS011;28250;52.320;0.360;2023-04-16T13:15:00;5.00;;;4.00;;
42616;SDS011;28250;52.320;0.360;2023-04-16T13:17:26;6.07;;;4.85;;
42616;SDS011;28250;52.320;0.360;2023-04-16T13:19:52;7.07;;;4.60;;
42616;SDS011;28250;52.320;0.360;2023-04-16T13:22:18;9.55;;;4.68;;
42616;SDS011;28250;52.320;0.360;2023-04-16T13:24:44;5.95;;;4.47;;
42616;SDS011;28250;52.320;0.360;2023-04-16T13:27:10;4.32;;;3.92;;
42616;SDS011;28250;52.320;0.360;2023-04-16T13:29:37;5.80;;;4.23;;
42616;SDS011;28250;52.320;0.360;2023-04-16T13:32:03;6.78;;;4.20;;
42616;SDS011;28250;52.320;0.360;2023-04-16T13:34:29;5.43;;;4.07;;
42616;SDS011;28250;52.320;0.360;2023-04-16T13:36:56;5.78;;;3.83;;
42616;SDS011;28250;52.320;0.360;2023-04-16T13:39:22;5.05;;;4.10;;
42616;SDS011;28250;52.320;0.360;2023-04-16T13:41:48;8.73;;;3.88;;
42616;SDS011;28250;52.320;0.360;2023-04-16T13:44:15;5.22;;;3.88;;
42616;SDS011;28250;52.320;0.360;2023-04-16T13:46:41;5.03;;;3.30;;
42616;SDS011;28250;52.320;0.360;2023-04-16T13:49:11;5.90;;;3.80;;
42616;SDS011;28250;52.320;0.360;2023-04-16T13:51:38;5.10;;;3.42;;
42616;SDS011;28250;52.320;0.360;2023-04-16T13:54:05;5.32;;;3.70;;
42616;SDS011;28250;52.320;0.360;2023-04-16T13:56:31;4.55;;;3.85;;
42616;SDS011;28250;52.320;0.360;2023-04-16T13:58:57;5.70;;;3.20;;
42616;SDS011;28250;52.320;0.360;2023-04-16T14:01:23;5.05;;;3.38;;
42616;SDS011;28250;52.320;0.360;2023-04-16T14:03:49;7.15;;;3.88;;
42616;SDS011;28250;52.320;0.360;2023-04-16T14:06:15;6.28;;;3.53;;
42616;SDS011;28250;52.320;0.360;2023-04-16T14:08:42;5.40;;;2.97;;
42616;SDS011;28250;52.320;0.360;2023-04-16T14:13:36;6.72;;;3.53;;
42616;SDS011;28250;52.320;0.360;2023-04-16T14:16:02;6.00;;;3.95;;
42616;SDS011;28250;52.320;0.360;2023-04-16T14:18:28;5.25;;;3.50;;
42616;SDS011;28250;52.320;0.360;2023-04-16T14:20:54;4.43;;;3.42;;
42616;SDS011;28250;52.320;0.360;2023-04-16T14:23:20;4.90;;;3.28;;
42616;SDS011;28250;52.320;0.360;2023-04-16T14:25:46;4.50;;;3.78;;
42616;SDS011;28250;52.320;0.360;2023-04-16T14:28:13;9.32;;;3.95;;
42616;SDS011;28250;52.320;0.360;2023-04-16T14:30:39;5.05;;;3.95;;
42616;SDS011;28250;52.320;0.360;2023-04-16T14:33:05;5.43;;;3.58;;
42616;SDS011;28250;52.320;0.360;2023-04-16T14:35:31;4.05;;;3.30;;
42616;SDS011;28250;52.320;0.360;2023-04-16T14:38:00;7.40;;;3.40;;
42616;SDS011;28250;52.320;0.360;2023-04-16T14:40:27;4.72;;;2.90;;
42616;SDS011;28250;52.320;0.360;2023-04-16T14:42:53;9.82;;;6.35;;
42616;SDS011;28250;52.320;0.360;2023-04-16T14:45:19;6.00;;;4.50;;
42616;SDS011;28250;52.320;0.360;2023-04-16T14:47:45;5.90;;;3.80;;
42616;SDS011;28250;52.320;0.360;2023-04-16T14:50:12;5.93;;;3.40;;
42616;SDS011;28250;52.320;0.360;2023-04-16T14:52:39;6.53;;;2.63;;
42616;SDS011;28250;52.320;0.360;2023-04-16T14:55:06;6.00;;;3.05;;
42616;SDS011;28250;52.320;0.360;2023-04-16T14:57:32;4.10;;;3.17;;
42616;SDS011;28250;52.320;0.360;2023-04-16T14:59:59;5.95;;;3.50;;
42616;SDS011;28250;52.320;0.360;2023-04-16T15:02:26;6.10;;;3.10;;
42616;SDS011;28250;52.320;0.360;2023-04-16T15:04:53;3.30;;;2.55;;
42616;SDS011;28250;52.320;0.360;2023-04-16T15:07:19;5.15;;;3.25;;